createdAt,value
2022-09-29T00:00:13.598Z,72.28
2022-09-29T00:04:00.887Z,72.30
2022-09-29T00:07:27.857Z,72.12
2022-09-29T00:10:55.187Z,72.22
2022-09-29T00:14:22.887Z,72.10
2022-09-29T00:18:12.135Z,72.26
2022-09-29T00:21:36.466Z,72.26
2022-09-29T00:25:03.857Z,72.43
2022-09-29T00:28:30.871Z,72.43
2022-09-29T00:32:04.704Z,72.65
2022-09-29T00:35:31.939Z,72.86
2022-09-29T00:38:59.819Z,72.62
2022-09-29T00:42:26.674Z,72.73
2022-09-29T00:45:56.382Z,72.82
2022-09-29T00:49:29.852Z,73.01
2022-09-29T00:53:02.990Z,72.85
2022-09-29T00:56:32.705Z,72.90
2022-09-29T01:00:03.928Z,72.96
2022-09-29T01:03:35.052Z,72.90
2022-09-29T01:07:02.072Z,72.76
2022-09-29T01:10:28.603Z,72.69
2022-09-29T01:13:57.495Z,72.51
2022-09-29T01:17:25.076Z,72.73
2022-09-29T01:21:02.725Z,72.73
2022-09-29T01:24:57.174Z,72.63
2022-09-29T01:28:32.727Z,72.69
2022-09-29T01:32:05.047Z,72.62
2022-09-29T01:35:38.901Z,72.68
2022-09-29T01:39:16.851Z,73.00
2022-09-29T01:42:58.772Z,72.98
2022-09-29T01:46:29.306Z,72.91
2022-09-29T01:50:05.274Z,72.99
2022-09-29T01:53:37.513Z,73.02
2022-09-29T01:57:14.116Z,73.19
2022-09-29T02:00:46.421Z,73.08
2022-09-29T02:04:18.616Z,73.22
2022-09-29T02:07:49.470Z,73.36
2022-09-29T02:11:18.432Z,73.24
2022-09-29T02:14:49.680Z,73.09
2022-09-29T02:18:22.570Z,73.36
2022-09-29T02:21:52.237Z,73.65
2022-09-29T02:25:21.386Z,73.71
2022-09-29T02:28:49.263Z,73.61
2022-09-29T02:32:17.097Z,73.43
2022-09-29T02:35:53.297Z,73.46
2022-09-29T02:39:37.098Z,73.63
2022-09-29T02:43:25.248Z,73.45
2022-09-29T02:47:16.468Z,73.58
2022-09-29T02:50:56.332Z,73.61
2022-09-29T02:54:44.070Z,73.65
2022-09-29T02:58:17.591Z,73.76
2022-09-29T03:01:50.878Z,73.72
2022-09-29T03:05:20.022Z,73.75
2022-09-29T03:08:46.787Z,73.79
2022-09-29T03:12:13.740Z,73.99
2022-09-29T03:15:40.978Z,73.90
2022-09-29T03:19:08.207Z,73.80
2022-09-29T03:22:34.940Z,73.78
2022-09-29T03:26:02.092Z,73.93
2022-09-29T03:29:28.748Z,73.74
2022-09-29T03:32:55.493Z,73.77
2022-09-29T03:36:22.609Z,73.93
2022-09-29T03:39:49.250Z,73.69
2022-09-29T03:43:16.147Z,73.75
2022-09-29T03:46:43.059Z,73.87
2022-09-29T03:50:11.340Z,74.10
2022-09-29T03:53:39.103Z,73.85
2022-09-29T03:57:06.520Z,74.06
2022-09-29T04:00:33.295Z,73.98
2022-09-29T04:04:00.727Z,74.11
2022-09-29T04:07:27.624Z,74.19
2022-09-29T04:10:56.684Z,74.12
2022-09-29T04:14:23.860Z,74.23
2022-09-29T04:17:50.936Z,74.30
2022-09-29T04:21:17.587Z,74.48
2022-09-29T04:24:44.330Z,74.35
2022-09-29T04:28:12.150Z,74.39
2022-09-29T04:31:42.201Z,74.27
2022-09-29T04:35:12.720Z,74.06
2022-09-29T04:38:39.308Z,74.06
2022-09-29T04:42:13.888Z,73.92
2022-09-29T04:45:40.841Z,74.04
2022-09-29T04:49:08.211Z,73.94
2022-09-29T04:52:35.208Z,73.94
2022-09-29T04:56:08.397Z,73.99
2022-09-29T04:59:35.485Z,73.87
2022-09-29T05:03:02.937Z,73.76
2022-09-29T05:06:29.941Z,74.08
2022-09-29T05:09:57.594Z,73.88
2022-09-29T05:13:25.730Z,73.98
2022-09-29T05:16:52.626Z,73.85
2022-09-29T05:20:20.716Z,73.91
2022-09-29T05:23:47.703Z,73.84
2022-09-29T05:27:14.453Z,73.81
2022-09-29T05:30:41.751Z,73.59
2022-09-29T05:34:09.013Z,73.95
2022-09-29T05:37:35.711Z,73.93
2022-09-29T05:41:07.127Z,73.97
2022-09-29T05:44:34.019Z,73.90
2022-09-29T05:48:01.080Z,73.88
2022-09-29T05:51:28.341Z,73.82
2022-09-29T05:54:55.032Z,73.90
2022-09-29T05:58:22.635Z,73.80
2022-09-29T06:01:49.514Z,73.70
2022-09-29T06:05:16.198Z,73.78
2022-09-29T06:08:46.782Z,73.95
2022-09-29T06:12:16.822Z,73.89
2022-09-29T06:15:46.933Z,73.85
2022-09-29T06:19:14.487Z,73.49
2022-09-29T06:22:46.212Z,73.79
2022-09-29T06:26:16.491Z,74.02
2022-09-29T06:29:45.777Z,74.11
2022-09-29T06:33:14.039Z,73.87
2022-09-29T06:37:01.393Z,74.01
2022-09-29T06:40:30.536Z,74.13
2022-09-29T06:43:58.781Z,73.97
2022-09-29T06:47:25.755Z,74.15
2022-09-29T06:51:05.206Z,73.80
2022-09-29T06:54:34.556Z,74.03
2022-09-29T06:58:04.093Z,73.88
2022-09-29T07:01:32.164Z,73.91
2022-09-29T07:05:00.022Z,74.09
2022-09-29T07:08:27.084Z,74.20
2022-09-29T07:11:54.481Z,73.89
2022-09-29T07:15:21.495Z,74.05
2022-09-29T07:18:48.902Z,74.15
2022-09-29T07:22:15.760Z,74.16
2022-09-29T07:25:51.587Z,74.19
2022-09-29T07:29:19.883Z,74.06
2022-09-29T07:32:58.028Z,73.83
2022-09-29T07:36:27.820Z,73.91
2022-09-29T07:39:54.870Z,74.01
2022-09-29T07:43:25.222Z,73.97
2022-09-29T07:46:54.415Z,73.77
2022-09-29T07:50:21.587Z,73.91
2022-09-29T07:53:49.042Z,73.78
2022-09-29T07:57:15.451Z,73.69
2022-09-29T08:00:44.438Z,73.73
2022-09-29T08:04:11.374Z,73.72
2022-09-29T08:07:38.357Z,73.61
2022-09-29T08:11:13.265Z,73.36
2022-09-29T08:14:44.378Z,73.76
2022-09-29T08:18:12.133Z,73.78
2022-09-29T08:21:38.895Z,73.67
2022-09-29T08:25:05.959Z,73.59
2022-09-29T08:28:33.087Z,73.78
2022-09-29T08:31:59.921Z,73.59
2022-09-29T08:35:26.844Z,73.78
2022-09-29T08:38:55.016Z,73.76
2022-09-29T08:42:40.391Z,73.78
2022-09-29T08:46:33.322Z,73.51
2022-09-29T08:50:06.513Z,73.26
2022-09-29T08:53:35.548Z,73.25
2022-09-29T08:57:03.183Z,73.59
2022-09-29T09:00:40.803Z,73.63
2022-09-29T09:04:40.586Z,73.26
2022-09-29T09:08:17.346Z,73.05
2022-09-29T09:12:03.578Z,73.15
2022-09-29T09:16:00.542Z,73.10
2022-09-29T09:19:43.911Z,73.09
2022-09-29T09:23:15.114Z,73.19
2022-09-29T09:26:45.844Z,73.24
2022-09-29T09:30:18.325Z,73.15
2022-09-29T09:34:02.542Z,72.81
2022-09-29T09:37:37.541Z,72.74
2022-09-29T09:41:05.461Z,72.58
2022-09-29T09:44:35.461Z,72.26
2022-09-29T09:48:10.055Z,72.13
2022-09-29T09:51:48.215Z,72.14
2022-09-29T09:55:20.198Z,72.26
2022-09-29T09:59:06.170Z,72.03
2022-09-29T10:02:33.578Z,71.73
2022-09-29T10:06:01.194Z,71.64
2022-09-29T10:09:29.601Z,71.51
2022-09-29T10:13:03.884Z,71.59
2022-09-29T10:16:42.699Z,71.60
2022-09-29T10:20:13.065Z,71.27
2022-09-29T10:23:41.045Z,71.12
2022-09-29T10:27:09.758Z,71.16
2022-09-29T10:30:47.499Z,71.08
2022-09-29T10:34:24.026Z,71.23
2022-09-29T10:38:07.938Z,71.30
2022-09-29T10:41:55.061Z,71.05
2022-09-29T10:45:24.013Z,70.94
2022-09-29T10:49:11.951Z,70.99
2022-09-29T10:52:43.703Z,70.88
2022-09-29T10:56:19.798Z,70.70
2022-09-29T10:59:55.719Z,70.46
2022-09-29T11:03:27.568Z,70.53
2022-09-29T11:06:55.647Z,70.68
2022-09-29T11:10:34.627Z,70.38
2022-09-29T11:14:04.967Z,70.26
2022-09-29T11:17:33.587Z,69.93
2022-09-29T11:21:15.978Z,70.03
2022-09-29T11:25:01.521Z,69.92
2022-09-29T11:29:04.052Z,69.93
2022-09-29T11:32:45.406Z,69.54
2022-09-29T11:36:25.372Z,69.46
2022-09-29T11:39:59.659Z,69.05
2022-09-29T11:43:45.200Z,69.18
2022-09-29T11:47:28.056Z,68.56
2022-09-29T11:51:03.829Z,68.93
2022-09-29T11:54:48.093Z,69.13
2022-09-29T11:58:29.401Z,68.70
2022-09-29T12:02:25.082Z,68.58
2022-09-29T12:06:07.749Z,68.51
2022-09-29T12:10:08.545Z,68.36
2022-09-29T12:13:47.085Z,68.25
2022-09-29T12:17:17.602Z,68.10
2022-09-29T12:20:48.693Z,68.44
2022-09-29T12:24:20.796Z,68.01
2022-09-29T12:27:49.874Z,67.83
2022-09-29T12:31:22.778Z,67.86
2022-09-29T12:34:53.357Z,67.69
2022-09-29T12:38:26.451Z,67.43
2022-09-29T12:41:58.558Z,67.27
2022-09-29T12:45:35.126Z,67.25
2022-09-29T12:49:10.299Z,67.35
2022-09-29T12:52:50.091Z,67.79
2022-09-29T12:56:22.164Z,67.69
2022-09-29T12:59:55.728Z,67.15
2022-09-29T13:03:43.308Z,66.78
2022-09-29T13:07:36.747Z,66.49
2022-09-29T13:11:31.842Z,66.11
2022-09-29T13:15:21.540Z,66.38
2022-09-29T13:19:52.570Z,66.62
2022-09-29T13:23:36.904Z,66.47
2022-09-29T13:27:18.863Z,65.82
2022-09-29T13:30:46.199Z,65.54
2022-09-29T13:34:28.322Z,65.29
2022-09-29T13:38:03.464Z,65.34
2022-09-29T13:41:41.137Z,65.48
2022-09-29T13:45:42.282Z,65.21
2022-09-29T13:49:28.431Z,65.19
2022-09-29T13:52:55.404Z,65.12
2022-09-29T13:56:24.492Z,65.26
2022-09-29T14:00:17.760Z,65.28
2022-09-29T14:03:47.953Z,65.40
2022-09-29T14:07:38.639Z,65.42
2022-09-29T14:11:15.541Z,65.12
2022-09-29T14:14:47.950Z,64.84
2022-09-29T14:18:29.937Z,64.89
2022-09-29T14:22:00.027Z,64.69
2022-09-29T14:25:54.685Z,64.94
2022-09-29T14:29:28.604Z,64.79
2022-09-29T14:32:59.859Z,64.61
2022-09-29T14:36:29.808Z,64.50
2022-09-29T14:40:16.241Z,64.52
2022-09-29T14:43:46.169Z,64.56
2022-09-29T14:51:41.453Z,64.31
2022-09-29T14:55:18.971Z,64.39
2022-09-29T14:59:01.640Z,64.39
2022-09-29T15:02:34.755Z,63.93
2022-09-29T15:06:14.280Z,63.99
2022-09-29T15:09:47.253Z,64.05
2022-09-29T15:13:24.565Z,64.08
2022-09-29T15:17:03.877Z,64.22
2022-09-29T15:20:51.333Z,64.09
2022-09-29T15:24:37.289Z,64.23
2022-09-29T15:28:12.378Z,64.33
2022-09-29T15:31:39.939Z,64.17
2022-09-29T15:35:14.426Z,64.19
2022-09-29T15:38:40.200Z,64.39
2022-09-29T15:42:16.681Z,64.38
2022-09-29T15:45:54.483Z,64.24
2022-09-29T15:49:23.395Z,64.15
2022-09-29T15:52:51.344Z,64.16
2022-09-29T15:56:18.251Z,64.36
2022-09-29T15:59:51.977Z,64.60
2022-09-29T16:03:27.654Z,64.73
2022-09-29T16:06:54.918Z,64.72
2022-09-29T16:10:28.056Z,64.72
2022-09-29T16:14:03.944Z,65.06
2022-09-29T16:17:31.893Z,65.28
2022-09-29T16:21:03.227Z,65.31
2022-09-29T16:24:36.822Z,65.59
2022-09-29T16:28:07.585Z,65.28
2022-09-29T16:31:35.118Z,65.47
2022-09-29T16:35:43.003Z,65.66
2022-09-29T16:39:19.948Z,65.65
2022-09-29T16:42:56.403Z,65.69
2022-09-29T16:46:37.618Z,65.65
2022-09-29T16:50:14.493Z,65.86
2022-09-29T16:53:42.305Z,65.77
2022-09-29T16:57:29.318Z,65.49
2022-09-29T17:00:57.966Z,65.60
2022-09-29T17:04:25.517Z,65.70
2022-09-29T17:08:06.134Z,65.73
2022-09-29T17:11:37.315Z,65.91
2022-09-29T17:15:06.984Z,65.90
2022-09-29T17:18:38.998Z,65.79
2022-09-29T17:22:26.778Z,65.92
2022-09-29T17:26:17.888Z,65.92
2022-09-29T17:29:46.674Z,66.07
2022-09-29T17:33:17.743Z,66.00
2022-09-29T17:36:47.223Z,66.17
2022-09-29T17:40:26.261Z,66.36
2022-09-29T17:43:56.310Z,66.43
2022-09-29T17:47:28.504Z,66.42
2022-09-29T17:50:59.916Z,66.33
2022-09-29T17:54:30.086Z,66.36
2022-09-29T17:58:05.915Z,66.23
2022-09-29T18:01:34.574Z,66.26
2022-09-29T18:05:05.619Z,66.33
2022-09-29T18:08:36.793Z,66.58
2022-09-29T18:12:07.226Z,66.39
2022-09-29T18:15:39.597Z,66.40
2022-09-29T18:19:19.084Z,66.23
2022-09-29T18:22:48.572Z,66.26
2022-09-29T18:26:21.654Z,66.39
2022-09-29T18:29:49.485Z,66.15
2022-09-29T18:33:34.626Z,66.29
2022-09-29T18:37:05.103Z,66.50
2022-09-29T18:40:42.229Z,66.39
2022-09-29T18:44:16.981Z,66.45
2022-09-29T18:48:02.497Z,66.66
2022-09-29T18:51:35.835Z,66.52
2022-09-29T18:55:07.657Z,66.60
2022-09-29T18:58:40.617Z,66.61
2022-09-29T19:02:14.761Z,66.71
2022-09-29T19:05:45.325Z,66.83
2022-09-29T19:09:16.253Z,66.45
2022-09-29T19:12:50.004Z,66.77
2022-09-29T19:16:20.971Z,66.77
2022-09-29T19:20:02.934Z,66.69
2022-09-29T19:23:35.931Z,66.86
2022-09-29T19:27:03.545Z,66.58
2022-09-29T19:30:39.949Z,66.51
2022-09-29T19:34:07.402Z,66.55
2022-09-29T19:37:35.071Z,66.93
2022-09-29T19:41:04.746Z,66.86
2022-09-29T19:44:43.932Z,67.04
2022-09-29T19:48:21.192Z,66.85
2022-09-29T19:51:54.348Z,66.98
2022-09-29T19:55:24.371Z,67.03
2022-09-29T19:59:00.344Z,66.99
2022-09-29T20:02:31.470Z,66.95
2022-09-29T20:06:05.048Z,67.11
2022-09-29T20:09:34.183Z,67.09
2022-09-29T20:13:04.072Z,67.13
2022-09-29T20:16:34.972Z,67.44
2022-09-29T20:20:13.455Z,67.43
2022-09-29T20:23:41.521Z,67.15
2022-09-29T20:27:09.467Z,67.26
2022-09-29T20:30:38.838Z,67.14
2022-09-29T20:34:15.328Z,67.49
2022-09-29T20:37:43.156Z,67.53
2022-09-29T20:41:13.920Z,67.62
2022-09-29T20:44:41.605Z,67.70
2022-09-29T20:48:12.073Z,68.11
2022-09-29T20:51:40.149Z,67.80
2022-09-29T20:55:13.212Z,68.08
2022-09-29T20:58:44.327Z,68.70
2022-09-29T21:02:14.414Z,68.58
2022-09-29T21:05:42.861Z,68.67
2022-09-29T21:09:14.783Z,68.34
2022-09-29T21:12:44.548Z,68.49
2022-09-29T21:16:12.498Z,68.28
2022-09-29T21:19:39.882Z,68.24
2022-09-29T21:23:07.552Z,68.33
2022-09-29T21:26:34.775Z,68.52
2022-09-29T21:30:02.638Z,68.31
2022-09-29T21:33:29.538Z,68.48
2022-09-29T21:36:56.846Z,68.67
2022-09-29T21:40:25.201Z,68.65
2022-09-29T21:43:53.831Z,68.77
2022-09-29T21:47:40.991Z,69.15
2022-09-29T21:51:11.561Z,68.93
2022-09-29T21:54:38.916Z,68.97
2022-09-29T21:58:07.200Z,69.01
2022-09-29T22:01:34.295Z,69.24
2022-09-29T22:05:08.375Z,68.88
2022-09-29T22:08:38.825Z,68.98
2022-09-29T22:12:06.590Z,68.90
2022-09-29T22:15:35.510Z,69.04
2022-09-29T22:19:28.469Z,69.03
2022-09-29T22:22:55.399Z,69.18
2022-09-29T22:26:23.286Z,68.81
2022-09-29T22:29:49.900Z,68.90
2022-09-29T22:33:16.824Z,68.95
2022-09-29T22:36:45.799Z,68.82
2022-09-29T22:40:15.620Z,68.64
2022-09-29T22:43:43.677Z,68.66
2022-09-29T22:47:10.669Z,69.03
2022-09-29T22:50:37.631Z,68.86
2022-09-29T22:54:07.140Z,68.91
2022-09-29T22:57:35.171Z,68.83
2022-09-29T23:01:08.483Z,69.06
2022-09-29T23:04:35.993Z,68.96
2022-09-29T23:08:03.317Z,69.21
2022-09-29T23:11:31.512Z,68.66
2022-09-29T23:14:59.405Z,69.00
2022-09-29T23:18:26.454Z,69.00
2022-09-29T23:21:53.119Z,69.01
2022-09-29T23:25:20.620Z,68.88
2022-09-29T23:28:49.246Z,69.05
2022-09-29T23:32:18.042Z,69.05
2022-09-29T23:35:44.723Z,69.22
2022-09-29T23:39:14.511Z,68.89
2022-09-29T23:42:41.421Z,69.01
2022-09-29T23:46:08.294Z,69.23
2022-09-29T23:49:35.127Z,69.54
2022-09-29T23:53:01.915Z,69.62
2022-09-29T23:56:29.272Z,69.72
2022-09-29T23:59:56.126Z,69.85
